createdAt,value
2023-03-03T00:02:33.829Z,2.12
2023-03-03T00:05:40.167Z,2.11
2023-03-03T00:08:42.628Z,2.23
2023-03-03T00:11:47.939Z,2.21
2023-03-03T00:14:50.369Z,2.37
2023-03-03T00:18:01.788Z,2.32
2023-03-03T00:21:24.203Z,2.22
2023-03-03T00:24:42.222Z,1.94
2023-03-03T00:27:47.601Z,1.78
2023-03-03T00:30:57.463Z,1.72
2023-03-03T00:34:23.465Z,1.62
2023-03-03T00:37:35.934Z,1.60
2023-03-03T00:40:43.010Z,1.59
2023-03-03T00:43:53.540Z,1.68
2023-03-03T00:46:57.995Z,1.54
2023-03-03T00:50:59.709Z,1.79
2023-03-03T00:54:01.948Z,1.86
2023-03-03T00:57:15.578Z,1.83
2023-03-03T01:00:25.369Z,1.76
2023-03-03T01:03:38.511Z,1.70
2023-03-03T01:06:43.934Z,1.61
2023-03-03T01:09:49.180Z,1.57
2023-03-03T01:12:52.617Z,1.53
2023-03-03T01:15:59.528Z,1.58
2023-03-03T01:19:04.775Z,1.49
2023-03-03T01:22:12.416Z,1.52
2023-03-03T01:25:30.921Z,1.43
2023-03-03T01:28:47.191Z,1.36
2023-03-03T01:31:58.297Z,1.25
2023-03-03T01:35:04.722Z,1.14
2023-03-03T01:38:07.040Z,1.12
2023-03-03T01:41:28.488Z,1.07
2023-03-03T01:44:36.005Z,1.26
2023-03-03T01:47:40.416Z,1.29
2023-03-03T01:50:55.924Z,1.27
2023-03-03T01:54:05.713Z,1.32
2023-03-03T01:57:20.903Z,1.29
2023-03-03T02:00:23.424Z,1.34
2023-03-03T02:03:34.388Z,1.40
2023-03-03T02:06:49.107Z,1.23
2023-03-03T02:10:15.651Z,1.08
2023-03-03T02:13:20.480Z,0.92
2023-03-03T02:16:31.435Z,1.11
2023-03-03T02:19:52.824Z,1.15
2023-03-03T02:23:19.693Z,0.99
2023-03-03T02:26:31.096Z,0.93
2023-03-03T02:29:42.063Z,0.91
2023-03-03T02:32:55.134Z,1.11
2023-03-03T02:36:22.548Z,0.90
2023-03-03T02:39:42.425Z,1.00
2023-03-03T02:42:54.617Z,1.03
2023-03-03T02:45:59.442Z,1.03
2023-03-03T02:49:09.970Z,1.04
2023-03-03T02:52:27.479Z,0.93
2023-03-03T02:55:38.214Z,0.99
2023-03-03T02:58:49.787Z,1.03
2023-03-03T03:02:07.150Z,1.07
2023-03-03T03:05:23.198Z,0.97
2023-03-03T03:08:27.874Z,0.97
2023-03-03T03:11:35.929Z,1.11
2023-03-03T03:14:39.192Z,1.25
2023-03-03T03:17:50.955Z,1.27
2023-03-03T03:21:06.622Z,1.23
2023-03-03T03:24:23.873Z,1.19
2023-03-03T03:27:39.048Z,1.11
2023-03-03T03:30:49.562Z,1.18
2023-03-03T03:33:55.843Z,1.16
2023-03-03T03:37:05.586Z,1.01
2023-03-03T03:40:14.356Z,1.08
2023-03-03T03:43:19.730Z,1.06
2023-03-03T03:46:41.364Z,1.06
2023-03-03T03:50:00.188Z,1.03
2023-03-03T03:53:06.555Z,0.98
2023-03-03T03:56:29.802Z,1.06
2023-03-03T03:59:36.884Z,1.01
2023-03-03T04:02:40.384Z,1.02
2023-03-03T04:05:51.461Z,0.99
2023-03-03T04:08:57.550Z,1.04
2023-03-03T04:12:20.913Z,0.97
2023-03-03T04:15:23.321Z,1.04
2023-03-03T04:18:32.598Z,1.02
2023-03-03T04:21:35.221Z,0.96
2023-03-03T04:24:41.477Z,0.91
2023-03-03T04:27:47.006Z,0.87
2023-03-03T04:30:52.403Z,0.79
2023-03-03T04:33:56.895Z,0.70
2023-03-03T04:37:02.061Z,0.53
2023-03-03T04:40:20.727Z,0.55
2023-03-03T04:43:25.422Z,0.47
2023-03-03T04:46:32.325Z,0.38
2023-03-03T04:49:40.115Z,0.28
2023-03-03T04:52:45.774Z,0.29
2023-03-03T04:55:54.353Z,0.31
2023-03-03T04:58:59.327Z,0.24
2023-03-03T05:02:11.516Z,0.26
2023-03-03T05:05:28.980Z,0.21
2023-03-03T05:08:35.251Z,0.14
2023-03-03T05:11:40.542Z,0.19
2023-03-03T05:14:47.061Z,0.10
2023-03-03T05:18:08.644Z,0.15
2023-03-03T05:21:11.742Z,0.18
2023-03-03T05:24:20.129Z,0.18
2023-03-03T05:27:24.732Z,0.21
2023-03-03T05:30:38.365Z,0.25
2023-03-03T05:33:54.906Z,0.23
2023-03-03T05:37:01.892Z,0.32
2023-03-03T05:40:10.390Z,0.35
2023-03-03T05:43:14.875Z,0.40
2023-03-03T05:46:33.657Z,0.43
2023-03-03T05:49:44.712Z,0.40
2023-03-03T05:52:58.191Z,0.49
2023-03-03T05:56:09.909Z,0.65
2023-03-03T05:59:16.305Z,0.76
2023-03-03T06:02:18.598Z,0.78
2023-03-03T06:05:30.598Z,0.97
2023-03-03T06:09:02.836Z,1.10
2023-03-03T06:12:15.172Z,1.31
2023-03-03T06:15:24.950Z,1.09
2023-03-03T06:18:36.875Z,1.03
2023-03-03T06:22:02.980Z,1.21
2023-03-03T06:25:11.560Z,1.36
2023-03-03T06:28:19.424Z,1.67
2023-03-03T06:31:30.139Z,1.80
2023-03-03T06:34:37.812Z,2.00
2023-03-03T06:37:55.485Z,2.21
2023-03-03T06:41:09.592Z,2.62
2023-03-03T06:44:13.214Z,2.91
2023-03-03T06:47:16.624Z,3.03
2023-03-03T06:50:24.043Z,3.72
2023-03-03T06:53:29.366Z,4.21
2023-03-03T06:56:43.577Z,4.37
2023-03-03T06:59:56.696Z,4.30
2023-03-03T07:03:27.565Z,3.97
2023-03-03T07:06:32.696Z,3.52
2023-03-03T07:09:41.105Z,3.26
2023-03-03T07:12:43.585Z,3.12
2023-03-03T07:15:59.355Z,3.00
2023-03-03T07:19:07.526Z,3.11
2023-03-03T07:22:33.086Z,3.50
2023-03-03T07:25:37.320Z,3.60
2023-03-03T07:28:52.264Z,3.67
2023-03-03T07:32:16.647Z,3.72
2023-03-03T07:35:44.993Z,3.68
2023-03-03T07:39:04.546Z,3.86
2023-03-03T07:42:20.023Z,3.72
2023-03-03T07:45:31.240Z,3.76
2023-03-03T07:48:50.289Z,3.81
2023-03-03T07:52:00.031Z,3.93
2023-03-03T07:55:20.261Z,3.99
2023-03-03T07:58:44.585Z,4.04
2023-03-03T08:01:49.827Z,4.05
2023-03-03T08:04:59.894Z,4.37
2023-03-03T08:08:31.218Z,4.45
2023-03-03T08:11:37.739Z,4.72
2023-03-03T08:14:48.186Z,4.62
2023-03-03T08:17:56.939Z,4.67
2023-03-03T08:21:15.530Z,4.72
2023-03-03T08:24:23.377Z,4.80
2023-03-03T08:27:28.144Z,4.98
2023-03-03T08:30:37.838Z,5.27
2023-03-03T08:33:48.994Z,5.46
2023-03-03T08:37:07.273Z,5.61
2023-03-03T08:40:20.898Z,5.80
2023-03-03T08:43:24.723Z,6.01
2023-03-03T08:46:31.404Z,6.07
2023-03-03T08:49:45.777Z,5.96
2023-03-03T08:52:48.485Z,6.26
2023-03-03T08:56:02.527Z,6.42
2023-03-03T08:59:10.839Z,6.75
2023-03-03T09:02:43.127Z,7.11
2023-03-03T09:05:51.025Z,7.44
2023-03-03T09:08:54.994Z,7.60
2023-03-03T09:12:14.011Z,8.39
2023-03-03T09:15:30.641Z,8.95
2023-03-03T09:18:46.173Z,9.77
2023-03-03T09:21:59.086Z,10.50
2023-03-03T09:25:23.106Z,10.95
2023-03-03T09:28:34.969Z,10.92
2023-03-03T09:31:48.544Z,10.99
2023-03-03T09:35:00.045Z,11.29
2023-03-03T09:38:17.785Z,11.25
2023-03-03T09:41:42.991Z,11.51
2023-03-03T09:45:03.772Z,11.52
2023-03-03T09:48:24.192Z,11.36
2023-03-03T09:51:56.782Z,15.06
2023-03-03T09:55:28.999Z,14.29
2023-03-03T09:58:46.737Z,13.04
2023-03-03T10:02:24.873Z,12.53
2023-03-03T10:05:49.422Z,12.63
2023-03-03T10:09:04.996Z,12.66
2023-03-03T10:12:12.011Z,12.31
2023-03-03T10:15:50.111Z,12.11
2023-03-03T10:19:06.787Z,12.27
2023-03-03T10:22:37.741Z,12.49
2023-03-03T10:25:54.905Z,12.93
2023-03-03T10:29:37.052Z,13.48
2023-03-03T10:33:16.260Z,13.82
2023-03-03T10:37:09.239Z,14.00
2023-03-03T10:40:25.840Z,14.36
2023-03-03T10:44:16.181Z,13.73
2023-03-03T10:47:45.444Z,13.67
2023-03-03T10:51:15.070Z,14.01
2023-03-03T10:54:37.997Z,13.93
2023-03-03T10:58:16.221Z,14.09
2023-03-03T11:01:59.841Z,14.42
2023-03-03T11:05:30.910Z,14.94
2023-03-03T11:08:58.793Z,14.64
2023-03-03T11:12:25.752Z,14.89
2023-03-03T11:15:45.829Z,15.86
2023-03-03T11:19:09.314Z,14.64
2023-03-03T11:22:40.208Z,13.94
2023-03-03T11:26:18.204Z,14.76
2023-03-03T11:29:40.459Z,14.08
2023-03-03T11:33:04.067Z,13.82
2023-03-03T11:36:18.063Z,14.80
2023-03-03T11:39:27.637Z,12.96
2023-03-03T11:42:42.789Z,14.45
2023-03-03T11:46:03.125Z,13.21
2023-03-03T11:49:20.084Z,13.24
2023-03-03T11:52:43.182Z,13.64
2023-03-03T11:55:58.465Z,13.72
2023-03-03T11:59:44.650Z,14.09
2023-03-03T12:03:20.812Z,14.25
2023-03-03T12:07:19.958Z,14.58
2023-03-03T12:10:51.310Z,14.48
2023-03-03T12:14:00.636Z,13.86
2023-03-03T12:17:08.776Z,13.88
2023-03-03T12:20:29.793Z,14.24
2023-03-03T12:24:06.525Z,14.36
2023-03-03T12:28:00.282Z,14.32
2023-03-03T12:31:32.923Z,14.33
2023-03-03T12:34:49.054Z,14.41
2023-03-03T12:38:14.619Z,14.59
2023-03-03T12:41:40.525Z,15.12
2023-03-03T12:45:13.111Z,15.02
2023-03-03T12:48:26.913Z,15.30
2023-03-03T12:52:02.559Z,15.02
2023-03-03T12:55:36.907Z,15.11
2023-03-03T12:59:25.280Z,14.91
2023-03-03T13:02:39.581Z,14.85
2023-03-03T13:05:51.545Z,14.58
2023-03-03T13:09:07.677Z,14.13
2023-03-03T13:12:41.938Z,14.63
2023-03-03T13:16:03.066Z,14.40
2023-03-03T13:19:49.798Z,14.42
2023-03-03T13:23:20.623Z,14.42
2023-03-03T13:26:30.839Z,14.40
2023-03-03T13:29:44.700Z,14.13
2023-03-03T13:33:32.574Z,14.25
2023-03-03T13:37:09.465Z,14.22
2023-03-03T13:40:19.545Z,13.97
2023-03-03T13:43:35.265Z,14.02
2023-03-03T13:46:51.645Z,14.11
2023-03-03T13:50:24.036Z,14.06
2023-03-03T13:53:56.813Z,14.14
2023-03-03T13:57:29.452Z,14.11
2023-03-03T14:01:22.029Z,13.90
2023-03-03T14:05:06.738Z,13.62
2023-03-03T14:08:37.070Z,13.31
2023-03-03T14:12:41.672Z,13.19
2023-03-03T14:16:12.296Z,13.09
2023-03-03T14:19:23.399Z,12.94
2023-03-03T14:22:52.341Z,12.61
2023-03-03T14:26:16.579Z,12.54
2023-03-03T14:29:30.356Z,12.43
2023-03-03T14:32:45.338Z,12.39
2023-03-03T14:36:04.545Z,12.19
2023-03-03T14:39:36.261Z,12.08
2023-03-03T14:42:55.082Z,12.07
2023-03-03T14:46:19.164Z,11.85
2023-03-03T14:50:00.335Z,11.70
2023-03-03T14:53:18.177Z,11.51
2023-03-03T14:56:27.274Z,11.33
2023-03-03T14:59:44.629Z,11.28
2023-03-03T15:03:15.017Z,11.36
2023-03-03T15:06:40.556Z,11.34
2023-03-03T15:09:51.258Z,11.31
2023-03-03T15:13:03.324Z,11.13
2023-03-03T15:16:25.364Z,10.98
2023-03-03T15:20:04.067Z,11.01
2023-03-03T15:23:40.102Z,10.98
2023-03-03T15:27:05.690Z,10.84
2023-03-03T15:30:29.156Z,10.77
2023-03-03T15:33:56.316Z,10.62
2023-03-03T15:37:33.625Z,10.51
2023-03-03T15:40:46.103Z,10.48
2023-03-03T15:44:09.046Z,10.36
2023-03-03T15:47:27.081Z,10.26
2023-03-03T15:50:51.818Z,10.24
2023-03-03T15:54:06.052Z,10.12
2023-03-03T15:57:25.412Z,10.06
2023-03-03T16:00:41.142Z,10.07
2023-03-03T16:04:21.316Z,9.86
2023-03-03T16:08:00.085Z,9.86
2023-03-03T16:11:22.698Z,9.76
2023-03-03T16:14:53.430Z,9.60
2023-03-03T16:18:10.749Z,9.42
2023-03-03T16:21:25.845Z,9.30
2023-03-03T16:25:05.414Z,9.11
2023-03-03T16:28:19.280Z,8.97
2023-03-03T16:31:32.326Z,8.95
2023-03-03T16:34:54.692Z,8.79
2023-03-03T16:38:04.747Z,8.59
2023-03-03T16:41:20.808Z,8.46
2023-03-03T16:44:41.507Z,8.32
2023-03-03T16:48:09.112Z,8.22
2023-03-03T16:51:38.403Z,8.16
2023-03-03T16:55:00.578Z,7.83
2023-03-03T16:58:13.245Z,7.80
2023-03-03T17:01:45.573Z,7.75
2023-03-03T17:04:59.697Z,7.56
2023-03-03T17:08:08.234Z,7.53
2023-03-03T17:11:35.821Z,7.35
2023-03-03T17:14:53.154Z,7.08
2023-03-03T17:18:23.862Z,6.99
2023-03-03T17:21:56.996Z,7.03
2023-03-03T17:25:38.422Z,7.02
2023-03-03T17:29:20.055Z,6.78
2023-03-03T17:32:39.702Z,6.46
2023-03-03T17:36:20.129Z,6.36
2023-03-03T17:40:06.890Z,6.47
2023-03-03T17:43:29.950Z,6.50
2023-03-03T17:46:56.503Z,6.39
2023-03-03T17:50:44.956Z,6.25
2023-03-03T17:54:41.002Z,6.18
2023-03-03T17:57:54.819Z,6.15
2023-03-03T18:01:22.839Z,6.16
2023-03-03T18:04:32.938Z,6.28
2023-03-03T18:07:56.107Z,6.33
2023-03-03T18:11:42.927Z,6.20
2023-03-03T18:14:52.773Z,6.11
2023-03-03T18:18:43.986Z,5.99
2023-03-03T18:21:51.927Z,5.87
2023-03-03T18:25:29.300Z,6.07
2023-03-03T18:28:49.626Z,5.83
2023-03-03T18:32:19.909Z,5.93
2023-03-03T18:35:39.022Z,5.97
2023-03-03T18:38:51.002Z,5.70
2023-03-03T18:42:23.519Z,5.72
2023-03-03T18:45:29.877Z,5.74
2023-03-03T18:49:01.165Z,5.80
2023-03-03T18:52:30.844Z,6.09
2023-03-03T18:55:42.801Z,6.11
2023-03-03T18:58:51.325Z,6.04
2023-03-03T19:02:21.198Z,5.69
2023-03-03T19:05:36.302Z,5.55
2023-03-03T19:09:01.552Z,5.53
2023-03-03T19:12:13.695Z,5.55
2023-03-03T19:15:35.686Z,5.61
2023-03-03T19:18:46.591Z,5.68
2023-03-03T19:22:29.656Z,5.70
2023-03-03T19:25:57.687Z,5.65
2023-03-03T19:29:19.882Z,5.58
2023-03-03T19:33:07.197Z,5.69
2023-03-03T19:36:15.512Z,5.97
2023-03-03T19:40:05.956Z,6.10
2023-03-03T19:43:45.592Z,6.00
2023-03-03T19:47:16.039Z,5.96
2023-03-03T19:50:49.461Z,5.86
2023-03-03T19:54:30.145Z,5.68
2023-03-03T19:57:37.324Z,5.61
2023-03-03T20:00:59.815Z,5.57
2023-03-03T20:04:23.872Z,5.40
2023-03-03T20:08:28.995Z,5.53
2023-03-03T20:12:00.039Z,5.41
2023-03-03T20:15:24.555Z,5.35
2023-03-03T20:19:04.685Z,5.27
2023-03-03T20:22:42.310Z,5.31
2023-03-03T20:26:07.783Z,5.29
2023-03-03T20:29:35.606Z,5.27
2023-03-03T20:33:05.338Z,5.08
2023-03-03T20:36:32.871Z,4.97
2023-03-03T20:39:47.729Z,4.93
2023-03-03T20:43:18.006Z,4.90
2023-03-03T20:46:36.523Z,4.90
2023-03-03T20:50:06.175Z,4.85
2023-03-03T20:53:32.330Z,4.91
2023-03-03T20:57:38.484Z,4.92
2023-03-03T21:01:06.231Z,4.79
2023-03-03T21:04:27.828Z,4.72
2023-03-03T21:07:36.948Z,4.79
2023-03-03T21:10:47.071Z,4.76
2023-03-03T21:13:58.523Z,4.59
2023-03-03T21:17:33.704Z,4.60
2023-03-03T21:20:40.737Z,4.67
2023-03-03T21:23:44.246Z,4.69
2023-03-03T21:26:54.320Z,4.76
2023-03-03T21:30:22.603Z,4.81
2023-03-03T21:34:01.500Z,4.64
2023-03-03T21:37:42.839Z,4.60
2023-03-03T21:41:13.638Z,4.63
2023-03-03T21:44:45.707Z,4.66
2023-03-03T21:47:57.665Z,4.72
2023-03-03T21:51:00.081Z,4.69
2023-03-03T21:54:06.567Z,4.65
2023-03-03T21:57:18.262Z,4.51
2023-03-03T22:00:26.454Z,4.56
2023-03-03T22:03:37.199Z,4.53
2023-03-03T22:06:41.650Z,4.53
2023-03-03T22:09:46.021Z,4.53
2023-03-03T22:12:53.893Z,4.42
2023-03-03T22:15:59.089Z,4.35
2023-03-03T22:19:09.217Z,4.24
2023-03-03T22:22:15.538Z,4.20
2023-03-03T22:25:28.209Z,4.19
2023-03-03T22:28:37.582Z,4.20
2023-03-03T22:31:51.413Z,4.18
2023-03-03T22:34:59.904Z,4.19
2023-03-03T22:38:05.166Z,4.07
2023-03-03T22:41:09.024Z,3.99
2023-03-03T22:44:18.398Z,3.95
2023-03-03T22:47:25.683Z,3.86
2023-03-03T22:50:28.081Z,3.81
2023-03-03T22:53:33.796Z,3.73
2023-03-03T23:00:00.996Z,3.77
2023-03-03T23:03:03.238Z,3.75
2023-03-03T23:06:11.044Z,3.72
2023-03-03T23:09:23.431Z,3.70
2023-03-03T23:12:28.252Z,3.72
2023-03-03T23:15:35.550Z,3.75
2023-03-03T23:18:42.258Z,3.71
2023-03-03T23:21:49.508Z,3.60
2023-03-03T23:24:55.887Z,3.57
2023-03-03T23:28:00.813Z,3.51
2023-03-03T23:31:04.468Z,3.50
2023-03-03T23:34:11.316Z,3.48
2023-03-03T23:37:26.782Z,3.50
2023-03-03T23:40:37.969Z,3.52
2023-03-03T23:43:44.233Z,3.42
2023-03-03T23:46:59.660Z,3.41
2023-03-03T23:50:02.045Z,3.31
2023-03-03T23:53:17.491Z,3.22
2023-03-03T23:56:23.402Z,3.14
2023-03-03T23:59:32.896Z,3.16
